Strona główna
METAR-TAF:

METAR-TAF

Lotnisko :

Lagos, Nigeria

Port lotniczy Lagos

Szerokość geograficzna: 06-35N, Długość geograficzna: 003-20E, wysokość: 40 m

Aktualna obserwacja pogody

Raport powstał 52 minut temu, godzina 13:00 UTC
Wiatr 3 kt od północno-północny zachód
Temperatura 33°C
Wilgotność 53%
Ciśnienie 1011 hPa
Widzialność: 8000 m
Rozproszone chmury na wysokości 1500 ft

METAR: DNMM 181300Z 33003KT 8000 SCT015 33/22 Q1011 NOSIG

czas: 14:52 (13:52 UTC)

Prognoza

Raport powstał 4 godziny i 22 minut temu, godzina 09:30 UTC
Prognoza ważna od 18 godzina 12 UTC do 19 godzina 18 UTC
Wiatr 10 kt od południe
Widzialność: 7000 m
Rozproszone chmury na wysokości 1300 ft
Stopniowe zmiany
od 18 godzina 18 UTC do 18 godzina 20 UTC
Wiatr 2 kt z kierunków zmiennych

TAF: DNMM 180930Z 1812/1918 17010KT 7000 SCT013 BECMG 1818/1820 VRB02KT NSC

Obserwacja i prognoza pogody dla ponad 4000 lotnisk (raport METAR i TAF).

Dostępne stacje oznaczono żółtymi i czerwonymi punktami na mapie.

Najedź kursorem aby zobaczyć nazwę stacji.

Kliknij aby zobaczyć obserwacje i prognozy pogody.

Aby zmienić mapę: kliknij na zielony przycisk z czarnym krzyżykiem, aby powiększyć; na zielony przycisk z myślnikiem, aby pomniejszyć; na zielone strzałki, aby przejść do map sąsiednich.


METAR-TAF: